createdAt,value
2019-02-14T00:00:59.498Z,44.20
2019-02-14T00:03:00.859Z,39.80
2019-02-14T00:05:03.556Z,48.13
2019-02-14T00:07:05.126Z,47.70
2019-02-14T00:09:06.489Z,44.23
2019-02-14T00:11:07.834Z,48.17
2019-02-14T00:13:09.227Z,42.57
2019-02-14T00:15:12.597Z,48.10
2019-02-14T00:17:14.058Z,53.20
2019-02-14T00:19:15.464Z,43.90
2019-02-14T00:21:16.825Z,48.23
2019-02-14T00:23:18.178Z,53.50
2019-02-14T00:25:19.585Z,52.20
2019-02-14T00:27:20.931Z,48.27
2019-02-14T00:29:22.294Z,44.43
2019-02-14T00:31:23.694Z,45.10
2019-02-14T00:33:25.041Z,43.23
2019-02-14T00:35:26.445Z,48.27
2019-02-14T00:37:27.862Z,46.47
2019-02-14T00:39:29.331Z,43.53
2019-02-14T00:41:30.758Z,42.40
2019-02-14T00:43:32.122Z,41.37
2019-02-14T00:45:34.681Z,45.60
2019-02-14T00:47:36.295Z,38.03
2019-02-14T00:49:37.666Z,37.20
2019-02-14T00:51:39.080Z,31.63
2019-02-14T00:53:40.435Z,40.00
2019-02-14T00:55:41.805Z,38.00
2019-02-14T00:57:43.272Z,36.60
2019-02-14T00:59:44.621Z,37.73
2019-02-14T01:01:46.056Z,36.33
2019-02-14T01:03:47.509Z,31.60
2019-02-14T01:05:48.886Z,36.43
2019-02-14T01:07:50.246Z,34.53
2019-02-14T01:09:51.684Z,33.97
2019-02-14T01:11:53.036Z,37.53
2019-02-14T01:13:54.401Z,34.37
2019-02-14T01:15:55.796Z,40.37
2019-02-14T01:17:57.164Z,43.03
2019-02-14T01:19:58.529Z,45.73
2019-02-14T01:21:59.993Z,34.30
2019-02-14T01:24:01.360Z,39.30
2019-02-14T01:26:03.032Z,39.20
2019-02-14T01:28:04.541Z,41.30
2019-02-14T01:30:09.420Z,39.27
2019-02-14T01:32:10.930Z,45.40
2019-02-14T01:34:12.384Z,43.63
2019-02-14T01:36:13.941Z,38.37
2019-02-14T01:38:15.365Z,38.60
2019-02-14T01:40:16.729Z,48.30
2019-02-14T01:42:18.088Z,36.50
2019-02-14T01:44:19.497Z,39.00
2019-02-14T01:46:20.863Z,35.67
2019-02-14T01:48:22.229Z,40.80
2019-02-14T01:50:23.614Z,36.77
2019-02-14T01:52:24.986Z,49.40
2019-02-14T01:54:26.350Z,35.13
2019-02-14T01:56:28.242Z,31.50
2019-02-14T01:58:29.768Z,41.07
2019-02-14T02:00:31.521Z,40.07
2019-02-14T02:02:32.975Z,37.33
2019-02-14T02:04:34.379Z,34.77
2019-02-14T02:06:35.740Z,30.97
2019-02-14T02:08:37.093Z,35.40
2019-02-14T02:10:38.473Z,31.37
2019-02-14T02:12:39.840Z,29.87
2019-02-14T02:14:41.237Z,34.50
2019-02-14T02:16:42.633Z,28.30
2019-02-14T02:18:44.001Z,33.93
2019-02-14T02:20:45.373Z,28.33
2019-02-14T02:22:46.788Z,31.90
2019-02-14T02:24:48.218Z,26.20
2019-02-14T02:26:49.563Z,34.93
2019-02-14T02:28:50.997Z,32.33
2019-02-14T02:30:52.424Z,25.67
2019-02-14T02:32:53.832Z,35.07
2019-02-14T02:34:55.206Z,33.60
2019-02-14T02:36:56.547Z,29.10
2019-02-14T02:38:57.953Z,27.50
2019-02-14T02:40:59.333Z,28.53
2019-02-14T02:43:00.687Z,30.23
2019-02-14T02:45:02.584Z,31.57
2019-02-14T02:47:03.978Z,31.30
2019-02-14T02:49:05.417Z,30.93
2019-02-14T02:51:06.822Z,26.77
2019-02-14T02:53:08.394Z,29.33
2019-02-14T02:55:09.977Z,30.03
2019-02-14T02:57:11.340Z,31.50
2019-02-14T02:59:14.205Z,30.63
2019-02-14T03:01:15.836Z,36.63
2019-02-14T03:03:17.188Z,30.40
2019-02-14T03:05:18.560Z,31.70
2019-02-14T03:07:19.964Z,30.87
2019-02-14T03:09:21.354Z,32.17
2019-02-14T03:11:22.722Z,28.83
2019-02-14T03:13:24.083Z,32.50
2019-02-14T03:15:25.513Z,26.77
2019-02-14T03:17:26.857Z,42.07
2019-02-14T03:19:28.264Z,36.20
2019-02-14T03:21:29.660Z,26.70
2019-02-14T03:23:31.115Z,28.23
2019-02-14T03:25:32.522Z,33.03
2019-02-14T03:27:33.900Z,29.43
2019-02-14T03:29:35.306Z,36.40
2019-02-14T03:31:36.655Z,29.10
2019-02-14T03:33:38.015Z,38.63
2019-02-14T03:35:39.426Z,35.67
2019-02-14T03:37:40.855Z,34.77
2019-02-14T03:39:42.209Z,28.33
2019-02-14T03:41:43.717Z,32.97
2019-02-14T03:43:45.121Z,36.17
2019-02-14T03:45:46.518Z,32.00
2019-02-14T03:47:47.862Z,35.20
2019-02-14T03:49:49.269Z,26.93
2019-02-14T03:51:50.628Z,35.83
2019-02-14T03:53:51.969Z,39.53
2019-02-14T03:55:53.551Z,27.57
2019-02-14T03:57:54.915Z,33.27
2019-02-14T03:59:56.297Z,25.93
2019-02-14T04:01:57.677Z,30.63
2019-02-14T04:03:59.040Z,28.37
2019-02-14T04:06:00.488Z,26.60
2019-02-14T04:08:01.860Z,32.30
2019-02-14T04:10:07.971Z,32.53
2019-02-14T04:12:09.375Z,25.20
2019-02-14T04:14:10.785Z,28.60
2019-02-14T04:16:12.408Z,28.87
2019-02-14T04:18:13.760Z,33.63
2019-02-14T04:20:15.119Z,29.27
2019-02-14T04:22:16.509Z,30.03
2019-02-14T04:24:17.922Z,27.80
2019-02-14T04:26:19.306Z,27.03
2019-02-14T04:28:20.659Z,27.43
2019-02-14T04:30:21.999Z,25.93
2019-02-14T04:32:23.386Z,34.10
2019-02-14T04:34:24.737Z,34.20
2019-02-14T04:36:26.074Z,27.90
2019-02-14T04:38:27.464Z,31.00
2019-02-14T04:40:33.582Z,25.50
2019-02-14T04:42:32.082Z,25.17
2019-02-14T04:44:33.484Z,26.83
2019-02-14T04:46:34.860Z,24.97
2019-02-14T04:48:36.210Z,26.00
2019-02-14T04:50:37.599Z,25.73
2019-02-14T04:52:38.947Z,27.33
2019-02-14T04:54:40.339Z,37.77
2019-02-14T04:56:41.750Z,26.03
2019-02-14T04:58:43.095Z,28.40
2019-02-14T05:00:44.448Z,27.63
2019-02-14T05:02:45.823Z,32.33
2019-02-14T05:04:47.434Z,22.10
2019-02-14T05:06:48.799Z,24.07
2019-02-14T05:08:50.138Z,24.63
2019-02-14T05:10:51.505Z,28.37
2019-02-14T05:12:52.854Z,26.70
2019-02-14T05:14:54.235Z,23.10
2019-02-14T05:16:55.619Z,25.07
2019-02-14T05:18:56.973Z,26.30
2019-02-14T05:20:58.360Z,24.90
2019-02-14T05:22:59.708Z,28.97
2019-02-14T05:25:01.083Z,26.20
2019-02-14T05:27:02.427Z,27.03
2019-02-14T05:29:04.206Z,30.80
2019-02-14T05:31:05.578Z,26.50
2019-02-14T05:33:06.935Z,32.17
2019-02-14T05:35:08.296Z,30.20
2019-02-14T05:37:09.678Z,37.07
2019-02-14T05:39:11.080Z,22.80
2019-02-14T05:41:12.466Z,27.53
2019-02-14T05:43:13.842Z,25.37
2019-02-14T05:45:15.814Z,24.90
2019-02-14T05:47:17.187Z,26.53
2019-02-14T05:49:18.571Z,25.53
2019-02-14T05:51:20.153Z,19.57
2019-02-14T05:53:21.511Z,24.80
2019-02-14T05:55:23.487Z,24.37
2019-02-14T05:57:27.297Z,25.03
2019-02-14T05:59:28.766Z,30.60
2019-02-14T06:01:30.116Z,24.30
2019-02-14T06:03:31.592Z,27.27
2019-02-14T06:05:32.992Z,22.50
2019-02-14T06:07:34.360Z,25.23
2019-02-14T06:09:35.769Z,25.23
2019-02-14T06:11:37.127Z,25.27
2019-02-14T06:13:38.555Z,26.10
2019-02-14T06:15:39.917Z,24.17
2019-02-14T06:17:41.295Z,25.17
2019-02-14T06:19:42.700Z,28.43
2019-02-14T06:21:44.088Z,28.27
2019-02-14T06:23:45.465Z,30.17
2019-02-14T06:25:46.817Z,26.03
2019-02-14T06:27:48.224Z,28.70
2019-02-14T06:29:49.593Z,25.63
2019-02-14T06:31:50.979Z,28.77
2019-02-14T06:33:52.354Z,26.73
2019-02-14T06:35:53.717Z,26.03
2019-02-14T06:37:55.109Z,25.20
2019-02-14T06:39:56.491Z,32.47
2019-02-14T06:41:57.856Z,28.20
2019-02-14T06:43:59.254Z,29.90
2019-02-14T06:46:00.619Z,31.57
2019-02-14T06:48:01.985Z,26.50
2019-02-14T06:50:05.492Z,31.27
2019-02-14T06:52:06.877Z,27.10
2019-02-14T06:54:08.233Z,29.13
2019-02-14T06:56:09.657Z,23.73
2019-02-14T06:58:12.802Z,25.93
2019-02-14T07:00:15.582Z,34.93
2019-02-14T07:02:17.220Z,30.37
2019-02-14T07:04:18.572Z,25.23
2019-02-14T07:06:19.949Z,27.90
2019-02-14T07:08:21.348Z,23.93
2019-02-14T07:10:22.711Z,25.27
2019-02-14T07:12:24.112Z,25.07
2019-02-14T07:14:25.496Z,22.00
2019-02-14T07:16:26.907Z,25.03
2019-02-14T07:18:28.378Z,31.23
2019-02-14T07:20:29.899Z,24.70
2019-02-14T07:22:31.351Z,28.93
2019-02-14T07:24:32.758Z,31.80
2019-02-14T07:26:34.149Z,23.07
2019-02-14T07:28:35.554Z,23.93
2019-02-14T07:30:36.945Z,27.20
2019-02-14T07:32:38.532Z,28.50
2019-02-14T07:34:39.891Z,30.80
2019-02-14T07:36:41.290Z,28.80
2019-02-14T07:38:42.692Z,28.43
2019-02-14T07:40:44.069Z,22.90
2019-02-14T07:42:45.504Z,23.13
2019-02-14T07:44:46.896Z,23.60
2019-02-14T07:46:48.258Z,26.10
2019-02-14T07:48:49.627Z,33.10
2019-02-14T07:50:51.010Z,29.77
2019-02-14T07:52:52.369Z,29.10
2019-02-14T07:54:53.811Z,27.53
2019-02-14T07:56:55.289Z,28.33
2019-02-14T07:58:56.682Z,28.67
2019-02-14T08:00:58.173Z,25.83
2019-02-14T08:02:59.578Z,26.07
2019-02-14T08:05:00.954Z,24.73
2019-02-14T08:07:02.576Z,22.97
2019-02-14T08:09:04.340Z,25.07
2019-02-14T08:11:05.819Z,25.67
2019-02-14T08:13:07.196Z,27.80
2019-02-14T08:15:13.442Z,28.43
2019-02-14T08:17:14.932Z,31.90
2019-02-14T08:19:16.324Z,34.10
2019-02-14T08:21:17.859Z,27.83
2019-02-14T08:23:19.359Z,28.60
2019-02-14T08:25:20.795Z,33.17
2019-02-14T08:27:22.189Z,30.70
2019-02-14T08:29:23.565Z,32.37
2019-02-14T08:31:24.999Z,25.70
2019-02-14T08:33:26.378Z,25.80
2019-02-14T08:35:27.750Z,31.90
2019-02-14T08:37:29.154Z,25.80
2019-02-14T08:39:30.494Z,25.77
2019-02-14T08:41:31.932Z,27.43
2019-02-14T08:43:33.333Z,32.70
2019-02-14T08:45:34.738Z,30.20
2019-02-14T08:47:36.084Z,26.70
2019-02-14T08:49:37.488Z,29.70
2019-02-14T08:51:38.852Z,27.00
2019-02-14T08:53:40.225Z,27.57
2019-02-14T08:55:41.635Z,26.33
2019-02-14T08:57:43.013Z,31.83
2019-02-14T08:59:44.384Z,34.17
2019-02-14T09:01:45.774Z,33.97
2019-02-14T09:03:47.160Z,24.80
2019-02-14T09:05:48.756Z,27.00
2019-02-14T09:07:54.649Z,25.13
2019-02-14T09:09:53.752Z,24.17
2019-02-14T09:11:55.174Z,25.40
2019-02-14T09:13:56.553Z,27.70
2019-02-14T09:15:57.936Z,23.80
2019-02-14T09:17:59.331Z,24.67
2019-02-14T09:20:00.719Z,24.07
2019-02-14T09:22:02.140Z,23.83
2019-02-14T09:24:03.516Z,26.07
2019-02-14T09:26:04.902Z,25.50
2019-02-14T09:28:06.379Z,20.70
2019-02-14T09:30:11.303Z,20.97
2019-02-14T09:32:12.864Z,26.03
2019-02-14T09:34:14.221Z,26.17
2019-02-14T09:36:15.666Z,24.90
2019-02-14T09:38:17.036Z,29.63
2019-02-14T09:40:18.414Z,25.13
2019-02-14T09:42:19.847Z,22.60
2019-02-14T09:44:21.255Z,20.33
2019-02-14T09:46:22.758Z,19.97
2019-02-14T09:48:24.119Z,19.00
2019-02-14T09:50:25.482Z,18.70
2019-02-14T09:52:26.900Z,22.73
2019-02-14T09:54:28.268Z,22.80
2019-02-14T09:56:29.606Z,17.10
2019-02-14T09:58:31.017Z,15.87
2019-02-14T10:00:32.368Z,17.90
2019-02-14T10:02:33.731Z,15.50
2019-02-14T10:04:35.119Z,17.10
2019-02-14T10:06:37.086Z,15.70
2019-02-14T10:08:38.499Z,12.70
2019-02-14T10:10:39.941Z,13.90
2019-02-14T10:12:41.301Z,16.70
2019-02-14T10:14:42.687Z,16.30
2019-02-14T10:16:44.108Z,15.77
2019-02-14T10:18:45.485Z,16.40
2019-02-14T10:20:46.858Z,16.37
2019-02-14T10:22:48.260Z,14.23
2019-02-14T10:24:49.636Z,15.30
2019-02-14T10:26:51.014Z,12.57
2019-02-14T10:28:52.412Z,16.13
2019-02-14T10:30:53.806Z,14.40
2019-02-14T10:32:55.177Z,19.17
2019-02-14T10:34:56.617Z,19.53
2019-02-14T10:36:57.993Z,16.40
2019-02-14T10:38:59.371Z,12.63
2019-02-14T10:41:00.787Z,17.37
2019-02-14T10:43:02.179Z,14.03
2019-02-14T10:45:11.263Z,15.67
2019-02-14T10:47:12.629Z,14.77
2019-02-14T10:49:14.027Z,14.23
2019-02-14T10:51:15.415Z,15.80
2019-02-14T10:53:16.801Z,13.63
2019-02-14T10:55:18.216Z,15.60
2019-02-14T10:57:19.579Z,20.30
2019-02-14T10:59:20.961Z,16.40
2019-02-14T11:01:22.333Z,16.87
2019-02-14T11:03:23.723Z,12.03
2019-02-14T11:05:25.128Z,13.67
2019-02-14T11:07:26.490Z,18.43
2019-02-14T11:09:27.864Z,17.47
2019-02-14T11:11:29.261Z,16.73
2019-02-14T11:13:30.731Z,17.60
2019-02-14T11:15:32.600Z,16.53
2019-02-14T11:17:33.985Z,17.47
2019-02-14T11:19:35.402Z,16.13
2019-02-14T11:21:36.794Z,16.80
2019-02-14T11:23:38.203Z,15.43
2019-02-14T11:25:39.733Z,17.17
2019-02-14T11:27:41.114Z,14.87
2019-02-14T11:29:42.500Z,16.13
2019-02-14T11:31:43.903Z,17.03
2019-02-14T11:33:45.271Z,15.70
2019-02-14T11:35:46.745Z,14.77
2019-02-14T11:37:48.903Z,18.10
2019-02-14T11:39:50.288Z,16.07
2019-02-14T11:41:51.686Z,15.53
2019-02-14T11:43:53.082Z,17.30
2019-02-14T11:45:54.478Z,17.00
2019-02-14T11:47:55.846Z,15.27
2019-02-14T11:49:57.222Z,20.80
2019-02-14T11:51:58.640Z,18.93
2019-02-14T11:54:00.008Z,15.20
2019-02-14T11:56:01.399Z,20.40
2019-02-14T11:58:02.936Z,15.27
2019-02-14T12:00:09.917Z,17.60
2019-02-14T12:02:11.285Z,17.53
2019-02-14T12:04:12.710Z,16.77
2019-02-14T12:06:17.564Z,18.53
2019-02-14T12:08:17.392Z,17.20
2019-02-14T12:10:18.779Z,17.20
2019-02-14T12:12:20.833Z,16.63
2019-02-14T12:14:23.463Z,18.17
2019-02-14T12:16:25.203Z,21.37
2019-02-14T12:18:26.572Z,22.87
2019-02-14T12:20:27.942Z,21.47
2019-02-14T12:22:29.368Z,18.43
2019-02-14T12:24:30.724Z,17.27
2019-02-14T12:26:32.463Z,18.93
2019-02-14T12:28:33.839Z,16.80
2019-02-14T12:30:35.239Z,18.80
2019-02-14T12:32:36.626Z,16.57
2019-02-14T12:34:38.037Z,16.73
2019-02-14T12:36:39.427Z,20.47
2019-02-14T12:38:40.961Z,16.63
2019-02-14T12:40:42.323Z,17.40
2019-02-14T12:42:43.740Z,16.97
2019-02-14T12:44:45.142Z,17.50
2019-02-14T12:46:46.526Z,17.50
2019-02-14T12:48:47.945Z,17.60
2019-02-14T12:50:49.303Z,17.00
2019-02-14T12:52:50.670Z,16.40
2019-02-14T12:54:52.098Z,17.53
2019-02-14T12:56:53.489Z,15.93
2019-02-14T12:58:54.853Z,19.40
2019-02-14T13:00:56.256Z,18.60
2019-02-14T13:02:57.624Z,15.90
2019-02-14T13:04:58.988Z,16.17
2019-02-14T13:07:00.418Z,15.93
2019-02-14T13:09:01.952Z,22.97
2019-02-14T13:11:03.331Z,18.07
2019-02-14T13:13:04.721Z,16.37
2019-02-14T13:15:13.566Z,18.23
2019-02-14T13:17:14.934Z,16.87
2019-02-14T13:19:16.331Z,17.20
2019-02-14T13:21:17.695Z,16.37
2019-02-14T13:23:19.094Z,18.50
2019-02-14T13:25:20.499Z,17.37
2019-02-14T13:27:21.890Z,18.53
2019-02-14T13:29:23.391Z,16.90
2019-02-14T13:31:31.513Z,15.20
2019-02-14T13:33:28.094Z,15.20
2019-02-14T13:35:29.455Z,17.07
2019-02-14T13:37:30.927Z,18.10
2019-02-14T13:39:32.799Z,15.77
2019-02-14T13:41:34.398Z,15.40
2019-02-14T13:43:35.844Z,18.83
2019-02-14T13:45:37.323Z,18.93
2019-02-14T13:47:38.725Z,16.97
2019-02-14T13:49:40.152Z,15.30
2019-02-14T13:51:41.581Z,14.77
2019-02-14T13:53:42.988Z,18.43
2019-02-14T13:55:44.356Z,18.70
2019-02-14T13:57:45.880Z,16.40
2019-02-14T13:59:47.302Z,17.27
2019-02-14T14:01:48.674Z,17.00
2019-02-14T14:03:50.066Z,17.20
2019-02-14T14:05:51.499Z,15.37
2019-02-14T14:07:52.864Z,16.47
2019-02-14T14:09:54.230Z,18.20
2019-02-14T14:11:55.657Z,18.63
2019-02-14T14:13:57.052Z,17.70
2019-02-14T14:15:58.421Z,17.60
2019-02-14T14:17:59.823Z,18.53
2019-02-14T14:20:01.200Z,17.60
2019-02-14T14:22:02.600Z,16.27
2019-02-14T14:24:04.034Z,17.70
2019-02-14T14:26:05.451Z,19.03
2019-02-14T14:28:06.830Z,15.00
2019-02-14T14:30:10.666Z,19.23
2019-02-14T14:32:12.089Z,13.20
2019-02-14T14:34:13.465Z,16.43
2019-02-14T14:36:15.128Z,17.17
2019-02-14T14:38:16.512Z,16.10
2019-02-14T14:40:20.221Z,16.90
2019-02-14T14:42:40.204Z,15.70
2019-02-14T14:44:43.536Z,20.83
2019-02-14T14:46:44.903Z,17.93
2019-02-14T14:48:46.309Z,17.60
2019-02-14T14:50:47.698Z,19.60
2019-02-14T14:52:49.129Z,15.97
2019-02-14T14:54:50.559Z,13.57
2019-02-14T14:56:51.923Z,14.53
2019-02-14T14:58:53.579Z,17.20
2019-02-14T15:00:55.015Z,15.03
2019-02-14T15:02:56.439Z,16.27
2019-02-14T15:04:57.851Z,15.77
2019-02-14T15:06:59.283Z,13.87
2019-02-14T15:09:00.712Z,18.30
2019-02-14T15:11:02.129Z,17.03
2019-02-14T15:13:03.506Z,20.37
2019-02-14T15:15:06.571Z,16.00
2019-02-14T15:17:08.042Z,18.33
2019-02-14T15:19:09.404Z,14.40
2019-02-14T15:21:10.799Z,13.90
2019-02-14T15:23:12.172Z,13.23
2019-02-14T15:25:13.546Z,13.83
2019-02-14T15:27:14.980Z,12.30
2019-02-14T15:29:16.358Z,13.17
2019-02-14T15:31:17.732Z,12.00
2019-02-14T15:33:19.128Z,14.77
2019-02-14T15:35:20.573Z,15.67
2019-02-14T15:37:21.947Z,14.37
2019-02-14T15:39:23.565Z,17.80
2019-02-14T15:41:24.939Z,11.97
2019-02-14T15:43:26.334Z,13.30
2019-02-14T15:45:27.739Z,13.30
2019-02-14T15:47:30.826Z,11.60
2019-02-14T15:49:32.301Z,18.33
2019-02-14T15:51:33.715Z,11.90
2019-02-14T15:53:35.078Z,13.00
2019-02-14T15:55:36.459Z,12.73
2019-02-14T15:57:39.866Z,17.60
2019-02-14T15:59:42.882Z,12.60
2019-02-14T16:01:44.490Z,13.70
2019-02-14T16:03:46.356Z,17.90
2019-02-14T16:05:47.753Z,14.03
2019-02-14T16:07:49.131Z,14.40
2019-02-14T16:09:50.547Z,16.57
2019-02-14T16:11:53.157Z,15.63
2019-02-14T16:13:57.098Z,14.07
2019-02-14T16:15:58.836Z,16.70
2019-02-14T16:18:01.641Z,17.50
2019-02-14T16:20:06.411Z,15.30
2019-02-14T16:22:07.828Z,11.90
2019-02-14T16:24:09.228Z,14.43
2019-02-14T16:26:10.629Z,12.70
2019-02-14T16:28:13.611Z,14.13
2019-02-14T16:30:16.537Z,11.90
2019-02-14T16:32:18.139Z,12.07
2019-02-14T16:34:19.539Z,10.97
2019-02-14T16:36:22.733Z,10.33
2019-02-14T16:38:24.271Z,14.57
2019-02-14T16:40:27.981Z,16.40
2019-02-14T16:42:28.999Z,28.73
2019-02-14T16:44:30.413Z,16.73
2019-02-14T16:46:31.892Z,12.40
2019-02-14T16:48:33.371Z,9.33
2019-02-14T16:50:34.769Z,11.33
2019-02-14T16:52:36.172Z,9.27
2019-02-14T16:54:37.609Z,9.03
2019-02-14T16:56:39.046Z,9.20
2019-02-14T16:58:40.427Z,10.27
2019-02-14T17:00:42.053Z,8.10
2019-02-14T17:02:43.475Z,13.70
2019-02-14T17:04:44.797Z,8.23
2019-02-14T17:06:46.227Z,8.07
2019-02-14T17:08:47.664Z,7.90
2019-02-14T17:10:49.051Z,9.17
2019-02-14T17:12:50.481Z,8.23
2019-02-14T17:14:51.941Z,8.23
2019-02-14T17:16:53.401Z,10.90
2019-02-14T17:18:54.899Z,10.43
2019-02-14T17:20:56.271Z,11.20
2019-02-14T17:22:57.784Z,10.30
2019-02-14T17:24:59.147Z,10.50
2019-02-14T17:27:00.506Z,15.10
2019-02-14T17:29:01.945Z,14.13
2019-02-14T17:31:03.298Z,16.77
2019-02-14T17:33:04.747Z,17.23
2019-02-14T17:35:06.736Z,14.03
2019-02-14T17:37:08.186Z,12.23
2019-02-14T17:39:09.563Z,12.60
2019-02-14T17:41:11.010Z,10.87
2019-02-14T17:43:12.445Z,11.97
2019-02-14T17:45:13.810Z,10.37
2019-02-14T17:47:15.178Z,12.80
2019-02-14T17:49:16.591Z,11.30
2019-02-14T17:51:17.943Z,9.73
2019-02-14T17:53:19.385Z,10.43
2019-02-14T17:55:20.778Z,9.30
2019-02-14T17:57:22.194Z,8.63
2019-02-14T17:59:23.619Z,9.27
2019-02-14T18:01:25.072Z,10.40
2019-02-14T18:03:26.401Z,9.50
2019-02-14T18:05:27.765Z,9.87
2019-02-14T18:07:29.216Z,11.27
2019-02-14T18:09:30.584Z,10.07
2019-02-14T18:11:32.075Z,9.43
2019-02-14T18:13:33.473Z,12.90
2019-02-14T18:15:34.840Z,10.90
2019-02-14T18:17:36.254Z,11.50
2019-02-14T18:19:37.632Z,10.43
2019-02-14T18:21:38.967Z,11.70
2019-02-14T18:23:40.388Z,10.20
2019-02-14T18:25:41.740Z,12.90
2019-02-14T18:27:43.111Z,10.60
2019-02-14T18:29:44.559Z,15.17
2019-02-14T18:31:45.929Z,13.37
2019-02-14T18:33:47.309Z,12.03
2019-02-14T18:35:48.726Z,16.63
2019-02-14T18:37:50.090Z,13.90
2019-02-14T18:39:52.298Z,17.00
2019-02-14T18:41:53.728Z,14.07
2019-02-14T18:43:55.103Z,16.07
2019-02-14T18:45:56.458Z,13.70
2019-02-14T18:47:57.914Z,12.77
2019-02-14T18:49:59.301Z,12.33
2019-02-14T18:52:00.663Z,13.90
2019-02-14T18:54:02.068Z,13.93
2019-02-14T18:56:03.438Z,12.20
2019-02-14T18:58:04.813Z,10.80
2019-02-14T19:00:15.983Z,8.77
2019-02-14T19:02:17.315Z,9.97
2019-02-14T19:04:18.680Z,8.40
2019-02-14T19:06:20.121Z,11.70
2019-02-14T19:08:21.596Z,12.17
2019-02-14T19:10:22.965Z,12.10
2019-02-14T19:12:24.582Z,10.43
2019-02-14T19:14:25.913Z,9.80
2019-02-14T19:16:27.381Z,11.53
2019-02-14T19:18:28.856Z,11.87
2019-02-14T19:20:30.317Z,10.50
2019-02-14T19:22:31.756Z,11.17
2019-02-14T19:24:33.103Z,12.03
2019-02-14T19:26:36.447Z,16.63
2019-02-14T19:28:38.414Z,11.77
2019-02-14T19:30:39.774Z,11.87
2019-02-14T19:32:41.120Z,12.33
2019-02-14T19:34:42.588Z,15.43
2019-02-14T19:36:43.985Z,14.40
2019-02-14T19:38:45.354Z,15.33
2019-02-14T19:40:46.833Z,11.97
2019-02-14T19:42:48.185Z,10.90
2019-02-14T19:44:49.558Z,11.80
2019-02-14T19:46:50.985Z,14.97
2019-02-14T19:48:53.370Z,13.40
2019-02-14T19:50:54.897Z,16.03
2019-02-14T19:52:56.262Z,12.93
2019-02-14T19:54:57.627Z,18.30
2019-02-14T19:56:59.177Z,12.83
2019-02-14T19:59:00.530Z,16.10
2019-02-14T20:01:01.895Z,13.40
2019-02-14T20:03:03.298Z,12.77
2019-02-14T20:05:07.391Z,13.67
2019-02-14T20:07:08.866Z,13.53
2019-02-14T20:09:10.320Z,16.13
2019-02-14T20:11:11.696Z,13.43
2019-02-14T20:13:16.491Z,14.43
2019-02-14T20:15:19.259Z,15.20
2019-02-14T20:17:20.602Z,15.27
2019-02-14T20:19:22.178Z,22.00
2019-02-14T20:21:23.568Z,15.43
2019-02-14T20:23:24.919Z,16.70
2019-02-14T20:25:28.497Z,17.03
2019-02-14T20:27:29.903Z,16.30
2019-02-14T20:29:31.301Z,15.80
2019-02-14T20:31:32.705Z,18.13
2019-02-14T20:33:34.051Z,15.13
2019-02-14T20:35:35.401Z,16.60
2019-02-14T20:37:36.814Z,17.00
2019-02-14T20:39:38.178Z,18.73
2019-02-14T20:41:45.371Z,17.97
2019-02-14T20:43:42.896Z,23.90
2019-02-14T20:45:44.405Z,17.07
2019-02-14T20:47:45.752Z,14.57
2019-02-14T20:49:47.173Z,18.40
2019-02-14T20:51:48.526Z,18.42
2019-02-14T20:53:49.891Z,28.30
2019-02-14T20:55:51.344Z,21.52
2019-02-14T20:57:52.695Z,36.63
2019-02-14T20:59:54.064Z,22.03
2019-02-14T21:01:55.464Z,23.62
2019-02-14T21:03:56.816Z,21.07
2019-02-14T21:05:58.161Z,26.40
2019-02-14T21:07:59.572Z,21.83
2019-02-14T21:10:00.937Z,28.07
2019-02-14T21:12:02.289Z,21.45
2019-02-14T21:14:03.707Z,20.10
2019-02-14T21:16:05.096Z,15.07
2019-02-14T21:18:06.504Z,17.40
2019-02-14T21:20:11.590Z,18.40
2019-02-14T21:22:18.194Z,18.50
2019-02-14T21:24:16.738Z,24.37
2019-02-14T21:26:18.282Z,16.70
2019-02-14T21:28:19.705Z,20.43
2019-02-14T21:30:21.134Z,17.25
2019-02-14T21:32:22.483Z,15.85
2019-02-14T21:34:23.859Z,18.53
2019-02-14T21:36:25.349Z,16.97
2019-02-14T21:38:26.703Z,20.43
2019-02-14T21:40:28.083Z,17.02
2019-02-14T21:42:30.300Z,15.93
2019-02-14T21:44:32.013Z,13.60
2019-02-14T21:46:33.385Z,12.43
2019-02-14T21:48:34.784Z,12.60
2019-02-14T21:50:36.181Z,12.50
2019-02-14T21:52:37.786Z,11.35
2019-02-14T21:54:39.379Z,11.50
2019-02-14T21:56:40.722Z,8.80
2019-02-14T21:58:42.190Z,9.65
2019-02-14T22:00:43.613Z,10.63
2019-02-14T22:02:45.141Z,9.85
2019-02-14T22:04:46.558Z,13.50
2019-02-14T22:06:47.936Z,11.70
2019-02-14T22:08:49.342Z,11.00
2019-02-14T22:10:50.719Z,10.18
2019-02-14T22:12:52.097Z,9.60
2019-02-14T22:14:53.567Z,10.05
2019-02-14T22:16:54.944Z,11.80
2019-02-14T22:18:56.330Z,10.28
2019-02-14T22:21:03.740Z,10.82
2019-02-14T22:23:05.340Z,13.78
2019-02-14T22:25:09.200Z,13.05
2019-02-14T22:27:11.120Z,10.95
2019-02-14T22:29:12.463Z,11.57
2019-02-14T22:31:13.823Z,12.68
2019-02-14T22:33:15.246Z,12.68
2019-02-14T22:35:16.594Z,9.75
2019-02-14T22:37:18.083Z,11.73
2019-02-14T22:39:19.535Z,8.93
2019-02-14T22:41:20.961Z,12.05
2019-02-14T22:43:22.404Z,11.33
2019-02-14T22:45:23.926Z,11.33
2019-02-14T22:47:25.274Z,12.88
2019-02-14T22:49:26.641Z,11.78
2019-02-14T22:51:28.032Z,11.12
2019-02-14T22:53:29.391Z,10.50
2019-02-14T22:55:30.789Z,11.38
2019-02-14T22:57:32.117Z,9.50
2019-02-14T22:59:33.510Z,11.90
2019-02-14T23:01:34.925Z,11.38
2019-02-14T23:03:36.303Z,10.23
2019-02-14T23:05:37.690Z,11.08
2019-02-14T23:07:39.106Z,10.65
2019-02-14T23:09:40.602Z,10.05
2019-02-14T23:11:42.049Z,11.40
2019-02-14T23:13:43.396Z,11.95
2019-02-14T23:15:44.806Z,11.00
2019-02-14T23:17:46.152Z,12.37
2019-02-14T23:19:49.390Z,13.13
2019-02-14T23:21:50.796Z,14.53
2019-02-14T23:23:52.151Z,12.37
2019-02-14T23:25:53.485Z,20.25
2019-02-14T23:27:55.786Z,13.53
2019-02-14T23:29:57.135Z,12.05
2019-02-14T23:31:58.491Z,12.80
2019-02-14T23:33:59.879Z,10.78
2019-02-14T23:36:01.219Z,14.55
2019-02-14T23:38:02.654Z,14.30
2019-02-14T23:40:05.613Z,11.78
2019-02-14T23:42:07.037Z,11.60
2019-02-14T23:44:08.410Z,10.72
2019-02-14T23:46:09.778Z,12.58
2019-02-14T23:48:11.153Z,11.53
2019-02-14T23:50:12.562Z,12.03
2019-02-14T23:52:13.928Z,14.73
2019-02-14T23:54:15.283Z,14.05
2019-02-14T23:56:16.858Z,12.68
2019-02-14T23:58:18.216Z,13.35
